createdAt,value
2023-01-30T00:01:45.294Z,3.18
2023-01-30T00:04:17.043Z,3.22
2023-01-30T00:06:45.408Z,3.20
2023-01-30T00:09:15.959Z,3.16
2023-01-30T00:11:44.013Z,3.12
2023-01-30T00:14:12.081Z,3.13
2023-01-30T00:16:40.194Z,3.12
2023-01-30T00:19:08.495Z,3.19
2023-01-30T00:21:36.678Z,3.16
2023-01-30T00:24:05.379Z,3.17
2023-01-30T00:26:35.136Z,3.14
2023-01-30T00:29:03.236Z,3.11
2023-01-30T00:31:31.297Z,3.12
2023-01-30T00:33:59.458Z,3.12
2023-01-30T00:36:27.569Z,3.17
2023-01-30T00:38:58.352Z,3.16
2023-01-30T00:41:46.454Z,3.11
2023-01-30T00:44:33.815Z,3.04
2023-01-30T00:47:09.093Z,3.04
2023-01-30T00:49:37.936Z,3.05
2023-01-30T00:52:06.821Z,3.09
2023-01-30T00:54:35.194Z,3.04
2023-01-30T00:57:03.322Z,3.05
2023-01-30T00:59:32.898Z,3.01
2023-01-30T01:02:01.123Z,2.94
2023-01-30T01:04:29.300Z,3.02
2023-01-30T01:06:57.364Z,3.03
2023-01-30T01:09:25.478Z,3.00
2023-01-30T01:11:53.584Z,2.98
2023-01-30T01:14:21.640Z,3.01
2023-01-30T01:16:51.128Z,3.03
2023-01-30T01:19:19.251Z,2.95
2023-01-30T01:21:47.403Z,2.93
2023-01-30T01:24:17.083Z,2.90
2023-01-30T01:26:46.031Z,2.95
2023-01-30T01:29:15.760Z,2.95
2023-01-30T01:31:44.852Z,2.95
2023-01-30T01:34:14.462Z,2.81
2023-01-30T01:36:53.091Z,2.84
2023-01-30T01:39:22.439Z,2.89
2023-01-30T01:41:49.475Z,2.88
2023-01-30T01:44:18.230Z,2.86
2023-01-30T01:46:51.719Z,2.80
2023-01-30T01:49:28.935Z,2.87
2023-01-30T01:52:03.463Z,2.80
2023-01-30T01:54:36.205Z,2.81
2023-01-30T01:57:08.092Z,2.81
2023-01-30T01:59:41.991Z,2.85
2023-01-30T02:02:14.074Z,2.92
2023-01-30T02:05:06.940Z,2.87
2023-01-30T02:07:39.587Z,2.68
2023-01-30T02:10:09.932Z,2.60
2023-01-30T02:12:39.630Z,2.68
2023-01-30T02:15:09.094Z,2.77
2023-01-30T02:17:37.184Z,2.75
2023-01-30T02:20:17.839Z,2.76
2023-01-30T02:23:18.062Z,2.57
2023-01-30T02:26:25.429Z,2.77
2023-01-30T02:29:18.767Z,2.78
2023-01-30T02:31:53.954Z,2.70
2023-01-30T02:34:39.991Z,2.78
2023-01-30T02:37:18.618Z,2.71
2023-01-30T02:40:00.600Z,2.64
2023-01-30T02:42:38.302Z,2.67
2023-01-30T02:45:13.587Z,2.77
2023-01-30T02:47:47.716Z,2.72
2023-01-30T02:50:20.677Z,2.70
2023-01-30T02:52:49.755Z,2.70
2023-01-30T02:55:21.680Z,2.71
2023-01-30T02:57:49.837Z,2.66
2023-01-30T03:00:24.152Z,2.62
2023-01-30T03:03:14.622Z,2.65
2023-01-30T03:06:09.739Z,2.60
2023-01-30T03:08:46.982Z,2.56
2023-01-30T03:11:15.163Z,2.56
2023-01-30T03:13:52.796Z,2.67
2023-01-30T03:16:26.564Z,2.66
2023-01-30T03:18:56.344Z,2.63
2023-01-30T03:21:24.386Z,2.56
2023-01-30T03:23:52.454Z,2.47
2023-01-30T03:26:24.304Z,2.61
2023-01-30T03:28:54.142Z,2.61
2023-01-30T03:31:22.544Z,2.64
2023-01-30T03:33:51.498Z,2.68
2023-01-30T03:36:21.010Z,2.60
2023-01-30T03:38:49.144Z,2.52
2023-01-30T03:41:17.269Z,2.52
2023-01-30T03:43:45.360Z,2.43
2023-01-30T03:46:13.499Z,2.49
2023-01-30T03:48:41.925Z,2.63
2023-01-30T03:51:09.974Z,2.59
2023-01-30T03:53:39.467Z,2.57
2023-01-30T03:56:07.730Z,2.62
2023-01-30T03:58:36.052Z,2.52
2023-01-30T04:01:04.234Z,2.53
2023-01-30T04:03:32.411Z,2.57
2023-01-30T04:06:00.739Z,2.60
2023-01-30T04:08:28.934Z,2.58
2023-01-30T04:10:58.537Z,2.57
2023-01-30T04:13:26.701Z,2.54
2023-01-30T04:15:54.742Z,2.53
2023-01-30T04:18:23.379Z,2.55
2023-01-30T04:20:51.537Z,2.45
2023-01-30T04:23:25.029Z,2.48
2023-01-30T04:25:53.121Z,2.45
2023-01-30T04:28:22.587Z,2.49
2023-01-30T04:30:50.791Z,2.49
2023-01-30T04:33:19.015Z,2.49
2023-01-30T04:35:53.375Z,2.45
2023-01-30T04:38:22.265Z,2.45
2023-01-30T04:40:50.637Z,2.50
2023-01-30T04:43:18.880Z,2.46
2023-01-30T04:45:49.425Z,2.43
2023-01-30T04:48:18.542Z,2.37
2023-01-30T04:50:49.831Z,2.35
2023-01-30T04:53:18.817Z,2.31
2023-01-30T04:55:47.727Z,2.28
2023-01-30T04:58:16.178Z,2.20
2023-01-30T05:00:44.213Z,2.36
2023-01-30T05:03:13.684Z,2.31
2023-01-30T05:05:42.089Z,2.32
2023-01-30T05:08:11.031Z,2.28
2023-01-30T05:10:39.447Z,2.38
2023-01-30T05:13:07.802Z,2.36
2023-01-30T05:15:36.193Z,2.30
2023-01-30T05:18:04.327Z,2.29
2023-01-30T05:20:33.781Z,2.29
2023-01-30T05:23:02.124Z,2.28
2023-01-30T05:25:30.391Z,2.34
2023-01-30T05:27:58.390Z,2.23
2023-01-30T05:30:26.518Z,2.29
2023-01-30T05:32:54.635Z,2.22
2023-01-30T05:35:22.891Z,2.29
2023-01-30T05:37:53.413Z,2.29
2023-01-30T05:40:21.573Z,2.33
2023-01-30T05:42:49.631Z,2.34
2023-01-30T05:45:18.027Z,2.26
2023-01-30T05:47:46.192Z,2.23
2023-01-30T05:50:14.491Z,2.21
2023-01-30T05:52:44.933Z,2.30
2023-01-30T05:55:14.542Z,2.33
2023-01-30T05:57:42.712Z,2.31
2023-01-30T06:00:12.149Z,2.32
2023-01-30T06:02:40.831Z,2.33
2023-01-30T06:05:09.908Z,2.33
2023-01-30T06:07:38.042Z,2.30
2023-01-30T06:12:53.610Z,2.34
2023-01-30T06:15:21.756Z,2.28
2023-01-30T06:17:49.863Z,2.24
2023-01-30T06:20:18.127Z,2.26
2023-01-30T06:22:46.110Z,2.32
2023-01-30T06:25:14.288Z,2.36
2023-01-30T06:27:43.429Z,2.31
2023-01-30T06:30:14.316Z,2.30
2023-01-30T06:32:42.905Z,2.29
2023-01-30T06:35:11.044Z,2.39
2023-01-30T06:37:39.602Z,2.39
2023-01-30T06:40:12.456Z,2.37
2023-01-30T06:42:40.931Z,2.32
2023-01-30T06:45:10.145Z,2.34
2023-01-30T06:47:47.006Z,2.40
2023-01-30T06:50:16.295Z,2.48
2023-01-30T06:52:45.544Z,2.46
2023-01-30T06:55:16.898Z,2.49
2023-01-30T06:57:46.006Z,2.52
2023-01-30T07:00:17.475Z,2.48
2023-01-30T07:02:47.421Z,2.48
2023-01-30T07:05:15.887Z,2.49
2023-01-30T07:07:44.388Z,2.44
2023-01-30T07:10:13.244Z,2.51
2023-01-30T07:12:41.398Z,2.54
2023-01-30T07:15:10.494Z,2.60
2023-01-30T07:17:38.688Z,2.52
2023-01-30T07:20:14.982Z,2.55
2023-01-30T07:22:43.366Z,2.58
2023-01-30T07:25:11.736Z,2.63
2023-01-30T07:27:41.329Z,2.61
2023-01-30T07:30:10.835Z,2.59
2023-01-30T07:32:39.532Z,2.62
2023-01-30T07:35:10.316Z,2.64
2023-01-30T07:37:38.570Z,2.58
2023-01-30T07:40:09.219Z,2.64
2023-01-30T07:42:39.476Z,2.66
2023-01-30T07:45:09.035Z,2.74
2023-01-30T07:47:37.293Z,2.75
2023-01-30T07:50:06.291Z,2.81
2023-01-30T07:52:35.744Z,2.89
2023-01-30T07:55:03.828Z,2.83
2023-01-30T07:57:31.932Z,2.85
2023-01-30T08:00:00.138Z,2.81
2023-01-30T08:02:28.298Z,2.85
2023-01-30T08:04:56.625Z,2.87
2023-01-30T08:07:25.062Z,2.87
2023-01-30T08:10:01.348Z,2.88
2023-01-30T08:12:45.707Z,2.90
2023-01-30T08:15:15.774Z,2.91
2023-01-30T08:17:44.053Z,3.04
2023-01-30T08:20:18.962Z,3.03
2023-01-30T08:22:47.361Z,3.00
2023-01-30T08:25:38.521Z,3.02
2023-01-30T08:28:17.141Z,3.01
2023-01-30T08:30:51.005Z,3.03
2023-01-30T08:33:19.606Z,2.95
2023-01-30T08:35:47.616Z,2.91
2023-01-30T08:38:15.781Z,3.01
2023-01-30T08:40:45.349Z,3.04
2023-01-30T08:43:13.403Z,3.08
2023-01-30T08:45:41.554Z,3.18
2023-01-30T08:48:09.750Z,3.22
2023-01-30T08:50:37.937Z,3.16
2023-01-30T08:53:09.253Z,3.13
2023-01-30T08:55:37.345Z,3.10
2023-01-30T08:58:06.831Z,3.15
2023-01-30T09:00:34.956Z,3.10
2023-01-30T09:03:03.378Z,3.06
2023-01-30T09:05:31.539Z,3.04
2023-01-30T09:07:59.778Z,3.07
2023-01-30T09:10:29.708Z,3.12
2023-01-30T09:12:59.109Z,3.11
2023-01-30T09:15:28.633Z,3.10
2023-01-30T09:17:56.748Z,3.21
2023-01-30T09:20:25.885Z,3.34
2023-01-30T09:22:54.082Z,3.38
2023-01-30T09:25:22.141Z,3.48
2023-01-30T09:27:50.869Z,3.43
2023-01-30T09:30:20.484Z,3.38
2023-01-30T09:32:50.805Z,3.30
2023-01-30T09:35:19.259Z,3.33
2023-01-30T09:37:51.080Z,3.41
2023-01-30T09:40:23.636Z,3.43
2023-01-30T09:43:24.255Z,3.28
2023-01-30T09:46:06.627Z,3.42
2023-01-30T09:48:45.442Z,3.49
2023-01-30T09:51:27.192Z,3.51
2023-01-30T09:54:12.123Z,3.49
2023-01-30T09:56:40.401Z,3.31
2023-01-30T09:59:15.695Z,3.49
2023-01-30T10:01:54.774Z,3.46
2023-01-30T10:04:33.135Z,3.40
2023-01-30T10:07:19.203Z,3.56
2023-01-30T10:09:58.427Z,3.72
2023-01-30T10:12:44.337Z,3.85
2023-01-30T10:15:34.533Z,3.91
2023-01-30T10:18:31.526Z,3.95
2023-01-30T10:21:11.081Z,3.93
2023-01-30T10:23:54.709Z,3.94
2023-01-30T10:26:27.083Z,3.85
2023-01-30T10:29:07.278Z,4.00
2023-01-30T10:31:44.490Z,4.10
2023-01-30T10:34:17.977Z,3.98
2023-01-30T10:36:55.817Z,3.98
2023-01-30T10:39:33.477Z,4.00
2023-01-30T10:42:10.924Z,3.88
2023-01-30T10:44:41.336Z,3.73
2023-01-30T10:47:29.783Z,3.78
2023-01-30T10:50:16.398Z,3.99
2023-01-30T10:52:54.095Z,4.01
2023-01-30T10:55:37.253Z,3.90
2023-01-30T10:58:15.475Z,3.90
2023-01-30T11:00:48.119Z,3.96
2023-01-30T11:03:23.669Z,4.13
2023-01-30T11:05:54.821Z,4.23
2023-01-30T11:08:27.623Z,4.18
2023-01-30T11:10:57.673Z,4.28
2023-01-30T11:13:30.671Z,4.35
2023-01-30T11:16:01.974Z,4.46
2023-01-30T11:21:32.056Z,4.44
2023-01-30T11:24:19.462Z,4.56
2023-01-30T11:26:48.756Z,4.51
2023-01-30T11:29:26.410Z,4.43
2023-01-30T11:31:55.680Z,4.56
2023-01-30T11:34:25.707Z,4.45
2023-01-30T11:36:54.240Z,4.41
2023-01-30T11:39:30.415Z,4.57
2023-01-30T11:42:04.878Z,4.48
2023-01-30T11:44:35.292Z,4.36
2023-01-30T11:47:08.207Z,4.38
2023-01-30T11:49:45.400Z,4.25
2023-01-30T11:52:22.698Z,4.39
2023-01-30T11:54:53.785Z,4.43
2023-01-30T11:57:22.371Z,4.50
2023-01-30T11:59:57.112Z,4.33
2023-01-30T12:02:30.024Z,4.26
2023-01-30T12:05:01.507Z,4.27
2023-01-30T12:07:31.993Z,4.30
2023-01-30T12:10:01.957Z,4.27
2023-01-30T12:12:33.272Z,4.33
2023-01-30T12:15:25.210Z,4.27
2023-01-30T12:18:02.561Z,4.28
2023-01-30T12:20:48.218Z,4.23
2023-01-30T12:23:26.007Z,4.17
2023-01-30T12:26:02.564Z,4.05
2023-01-30T12:28:38.793Z,4.10
2023-01-30T12:31:13.219Z,4.24
2023-01-30T12:33:41.859Z,4.27
2023-01-30T12:36:21.512Z,4.18
2023-01-30T12:38:59.184Z,4.16
2023-01-30T12:41:45.993Z,4.27
2023-01-30T12:44:41.589Z,4.24
2023-01-30T12:47:24.122Z,4.08
2023-01-30T12:50:18.813Z,4.14
2023-01-30T12:53:16.179Z,4.27
2023-01-30T12:55:55.734Z,4.29
2023-01-30T12:58:30.981Z,4.29
2023-01-30T13:01:10.220Z,4.28
2023-01-30T13:03:45.913Z,4.37
2023-01-30T13:06:36.679Z,4.21
2023-01-30T13:09:20.626Z,4.17
2023-01-30T13:12:00.746Z,4.28
2023-01-30T13:14:37.893Z,4.20
2023-01-30T13:17:25.994Z,4.23
2023-01-30T13:20:01.028Z,4.27
2023-01-30T13:22:37.201Z,4.23
2023-01-30T13:25:16.008Z,4.31
2023-01-30T13:27:51.759Z,4.28
2023-01-30T13:30:25.334Z,4.28
2023-01-30T13:32:56.744Z,4.32
2023-01-30T13:35:30.622Z,4.30
2023-01-30T13:38:00.380Z,4.18
2023-01-30T13:40:33.111Z,4.06
2023-01-30T13:43:07.309Z,4.05
2023-01-30T13:45:41.925Z,4.01
2023-01-30T13:48:24.223Z,3.96
2023-01-30T13:51:16.662Z,3.94
2023-01-30T13:53:52.155Z,3.97
2023-01-30T13:56:44.753Z,4.12
2023-01-30T13:59:28.015Z,4.03
2023-01-30T14:02:20.782Z,3.90
2023-01-30T14:04:53.969Z,3.94
2023-01-30T14:07:29.605Z,3.91
2023-01-30T14:10:13.102Z,3.79
2023-01-30T14:12:44.477Z,3.70
2023-01-30T14:15:25.591Z,3.64
2023-01-30T14:18:05.575Z,3.66
2023-01-30T14:20:35.636Z,3.53
2023-01-30T14:23:07.797Z,3.45
2023-01-30T14:25:48.618Z,3.42
2023-01-30T14:28:51.002Z,3.46
2023-01-30T14:31:52.730Z,3.33
2023-01-30T14:34:50.352Z,3.12
2023-01-30T14:37:46.801Z,3.09
2023-01-30T14:40:36.380Z,2.98
2023-01-30T14:43:38.279Z,2.94
2023-01-30T14:46:08.937Z,2.94
2023-01-30T14:48:44.471Z,3.00
2023-01-30T14:51:26.120Z,2.90
2023-01-30T14:53:57.839Z,2.83
2023-01-30T14:56:50.103Z,2.79
2023-01-30T14:59:25.854Z,2.92
2023-01-30T15:02:09.915Z,2.92
2023-01-30T15:04:45.965Z,2.86
2023-01-30T15:07:20.722Z,2.80
2023-01-30T15:09:54.795Z,2.77
2023-01-30T15:12:54.335Z,2.75
2023-01-30T15:15:27.998Z,2.76
2023-01-30T15:18:20.602Z,2.72
2023-01-30T15:21:06.842Z,2.80
2023-01-30T15:24:05.361Z,2.80
2023-01-30T15:26:47.958Z,2.78
2023-01-30T15:29:50.637Z,2.73
2023-01-30T15:32:30.858Z,2.77
2023-01-30T15:35:00.799Z,2.67
2023-01-30T15:37:35.170Z,2.59
2023-01-30T15:40:22.964Z,2.55
2023-01-30T15:42:57.214Z,2.53
2023-01-30T15:45:35.489Z,2.45
2023-01-30T15:48:17.902Z,2.32
2023-01-30T15:50:50.629Z,2.28
2023-01-30T15:53:19.193Z,2.31
2023-01-30T15:55:49.266Z,2.21
2023-01-30T15:58:21.945Z,2.21
2023-01-30T16:00:53.019Z,2.26
2023-01-30T16:03:25.459Z,2.23
2023-01-30T16:05:56.322Z,2.19
2023-01-30T16:08:27.171Z,2.11
2023-01-30T16:11:00.777Z,2.05
2023-01-30T16:13:30.338Z,2.09
2023-01-30T16:16:03.187Z,2.17
2023-01-30T16:18:37.499Z,2.12
2023-01-30T16:21:08.900Z,2.06
2023-01-30T16:23:40.100Z,2.06
2023-01-30T16:26:17.481Z,2.08
2023-01-30T16:28:46.266Z,2.03
2023-01-30T16:31:14.939Z,1.94
2023-01-30T16:33:43.423Z,1.92
2023-01-30T16:36:34.201Z,2.01
2023-01-30T16:39:03.410Z,1.96
2023-01-30T16:41:35.007Z,1.94
2023-01-30T16:44:11.770Z,1.88
2023-01-30T16:46:58.772Z,1.90
2023-01-30T16:49:39.663Z,1.87
2023-01-30T16:52:16.634Z,1.82
2023-01-30T16:54:48.397Z,1.82
2023-01-30T16:57:36.392Z,1.88
2023-01-30T17:00:22.441Z,1.86
2023-01-30T17:02:55.489Z,1.79
2023-01-30T17:05:25.672Z,1.78
2023-01-30T17:07:59.071Z,1.70
2023-01-30T17:10:53.510Z,1.66
2023-01-30T17:13:38.242Z,1.59
2023-01-30T17:16:33.595Z,1.55
2023-01-30T17:19:02.148Z,1.56
2023-01-30T17:21:32.924Z,1.49
2023-01-30T17:24:03.762Z,1.44
2023-01-30T17:26:33.627Z,1.37
2023-01-30T17:29:03.285Z,1.32
2023-01-30T17:31:31.559Z,1.32
2023-01-30T17:34:00.023Z,1.34
2023-01-30T17:36:30.510Z,1.29
2023-01-30T17:39:00.112Z,1.26
2023-01-30T17:41:31.036Z,1.22
2023-01-30T17:43:59.549Z,1.20
2023-01-30T17:46:35.376Z,1.13
2023-01-30T17:49:03.674Z,1.03
2023-01-30T17:51:31.849Z,1.15
2023-01-30T17:54:00.106Z,1.05
2023-01-30T17:56:32.684Z,1.09
2023-01-30T17:59:00.874Z,1.00
2023-01-30T18:01:30.415Z,1.04
2023-01-30T18:03:58.578Z,1.05
2023-01-30T18:06:29.903Z,1.06
2023-01-30T18:08:57.955Z,0.85
2023-01-30T18:11:26.132Z,0.76
2023-01-30T18:13:54.328Z,0.87
2023-01-30T18:16:25.803Z,0.89
2023-01-30T18:18:56.052Z,0.81
2023-01-30T18:21:24.167Z,0.83
2023-01-30T18:23:52.797Z,0.77
2023-01-30T18:26:21.087Z,0.71
2023-01-30T18:28:49.512Z,0.74
2023-01-30T18:31:18.489Z,0.68
2023-01-30T18:33:47.525Z,0.59
2023-01-30T18:36:19.797Z,0.55
2023-01-30T18:38:48.707Z,0.50
2023-01-30T18:41:19.566Z,0.47
2023-01-30T18:43:49.391Z,0.47
2023-01-30T18:46:19.333Z,0.43
2023-01-30T18:48:48.174Z,0.33
2023-01-30T18:51:20.453Z,0.33
2023-01-30T18:53:50.878Z,0.40
2023-01-30T18:56:21.795Z,0.38
2023-01-30T18:58:52.361Z,0.33
2023-01-30T19:01:22.474Z,0.33
2023-01-30T19:03:53.590Z,0.31
2023-01-30T19:06:23.296Z,0.26
2023-01-30T19:08:51.705Z,0.25
2023-01-30T19:11:39.269Z,0.26
2023-01-30T19:14:08.819Z,0.28
2023-01-30T19:16:39.585Z,0.20
2023-01-30T19:19:09.467Z,0.15
2023-01-30T19:21:40.017Z,0.16
2023-01-30T19:24:12.518Z,0.18
2023-01-30T19:26:41.247Z,0.16
2023-01-30T19:29:09.933Z,0.09
2023-01-30T19:31:39.696Z,0.08
2023-01-30T19:34:08.082Z,0.01
2023-01-30T19:36:52.520Z,0.03
2023-01-30T19:39:24.367Z,0.04
2023-01-30T19:41:52.630Z,0.04
2023-01-30T19:44:21.212Z,0.04
2023-01-30T19:47:17.439Z,0.01
2023-01-30T19:49:45.865Z,-0.02
2023-01-30T19:52:15.475Z,-0.04
2023-01-30T19:54:44.196Z,-0.05
2023-01-30T19:57:12.575Z,0.02
2023-01-30T19:59:41.021Z,0.02
2023-01-30T20:02:11.372Z,0.05
2023-01-30T20:04:40.978Z,-0.03
2023-01-30T20:07:09.039Z,0.00
2023-01-30T20:09:38.577Z,0.00
2023-01-30T20:12:07.361Z,0.02
2023-01-30T20:14:35.824Z,0.02
2023-01-30T20:17:04.005Z,0.06
2023-01-30T20:19:32.212Z,0.08
2023-01-30T20:22:02.598Z,0.11
2023-01-30T20:24:31.120Z,0.08
2023-01-30T20:27:01.285Z,0.02
2023-01-30T20:29:30.391Z,0.10
2023-01-30T20:31:59.812Z,0.20
2023-01-30T20:34:28.062Z,0.25
2023-01-30T20:36:56.384Z,0.31
2023-01-30T20:39:24.628Z,0.30
2023-01-30T20:41:54.058Z,0.31
2023-01-30T20:44:24.526Z,0.30
2023-01-30T20:46:53.211Z,0.32
2023-01-30T20:49:22.952Z,0.37
2023-01-30T20:51:53.099Z,0.39
2023-01-30T20:54:24.439Z,0.40
2023-01-30T20:56:54.400Z,0.48
2023-01-30T20:59:27.608Z,0.51
2023-01-30T21:01:56.012Z,0.53
2023-01-30T21:04:25.539Z,0.52
2023-01-30T21:06:53.897Z,0.51
2023-01-30T21:09:23.756Z,0.54
2023-01-30T21:11:54.993Z,0.48
2023-01-30T21:14:26.579Z,0.59
2023-01-30T21:16:55.253Z,0.61
2023-01-30T21:19:23.554Z,0.70
2023-01-30T21:21:54.297Z,0.84
2023-01-30T21:24:24.919Z,0.84
2023-01-30T21:26:53.549Z,0.80
2023-01-30T21:29:23.622Z,0.81
2023-01-30T21:31:53.683Z,0.72
2023-01-30T21:34:22.025Z,0.68
2023-01-30T21:37:04.012Z,0.75
2023-01-30T21:39:49.757Z,0.75
2023-01-30T21:42:35.259Z,0.78
2023-01-30T21:45:05.156Z,0.78
2023-01-30T21:47:34.769Z,0.79
2023-01-30T21:50:02.791Z,0.75
2023-01-30T21:52:33.383Z,0.75
2023-01-30T21:55:01.737Z,0.70
2023-01-30T21:57:29.828Z,0.69
2023-01-30T21:59:58.073Z,0.68
2023-01-30T22:02:26.182Z,0.71
2023-01-30T22:04:55.921Z,0.68
2023-01-30T22:07:24.085Z,0.70
2023-01-30T22:09:52.244Z,0.69
2023-01-30T22:12:20.692Z,0.65
2023-01-30T22:14:48.871Z,0.76
2023-01-30T22:17:17.534Z,0.82
2023-01-30T22:19:46.443Z,0.92
2023-01-30T22:22:16.347Z,0.96
2023-01-30T22:24:44.331Z,0.99
2023-01-30T22:27:12.463Z,1.14
2023-01-30T22:29:40.887Z,1.19
2023-01-30T22:32:08.995Z,1.19
2023-01-30T22:34:37.080Z,1.28
2023-01-30T22:37:05.272Z,1.35
2023-01-30T22:39:34.776Z,1.37
2023-01-30T22:42:02.882Z,1.46
2023-01-30T22:44:31.391Z,1.51
2023-01-30T22:46:59.621Z,1.54
2023-01-30T22:49:27.782Z,1.60
2023-01-30T22:51:55.847Z,1.69
2023-01-30T22:54:25.046Z,1.62
2023-01-30T22:56:54.644Z,1.76
2023-01-30T22:59:22.985Z,1.78
2023-01-30T23:01:52.088Z,1.85
2023-01-30T23:04:21.421Z,1.91
2023-01-30T23:06:51.493Z,1.97
2023-01-30T23:09:21.648Z,2.03
2023-01-30T23:12:05.515Z,2.04
2023-01-30T23:14:35.727Z,2.05
2023-01-30T23:17:25.534Z,1.99
2023-01-30T23:19:52.669Z,1.99
2023-01-30T23:22:20.819Z,1.92
2023-01-30T23:24:49.125Z,1.98
2023-01-30T23:27:17.362Z,2.03
2023-01-30T23:29:46.961Z,2.09
2023-01-30T23:32:18.315Z,2.19
2023-01-30T23:34:46.833Z,2.32
2023-01-30T23:37:15.295Z,2.41
2023-01-30T23:39:43.370Z,2.45
2023-01-30T23:42:11.421Z,2.48
2023-01-30T23:44:40.191Z,2.50
2023-01-30T23:47:09.774Z,2.54
2023-01-30T23:49:38.629Z,2.50
2023-01-30T23:52:07.234Z,2.48
2023-01-30T23:54:35.391Z,2.48
2023-01-30T23:57:03.855Z,2.57
2023-01-30T23:59:32.074Z,2.72
